LDDU/DBV METAR and TAF weather

Enter ICAO airport designator
Station Type Date Time Source
LDDU METAR 2019/08/18 08:30 UTC NOAA

LDDU 180830Z VRB06KT CAVOK 30/14 Q1017 NOSIG


Station Type Date Time Source
LDDU Decoded METAR 2019/08/18 08:30 UTC NOAA

Station name not available
Aug 18, 2019 - 04:30 AM EDT / 2019.08.18 0830 UTC
Wind: Variable at 7 MPH (6 KT):0
Visibility: greater than 7 mile(s):0
Temperature: 86 F (30 C)
Dew Point: 57 F (14 C)
Relative Humidity: 37%
Pressure (altimeter): 30.03 in. Hg (1017 hPa)
ob: LDDU 180830Z VRB06KT CAVOK 30/14 Q1017 NOSIG
cycle: 8

Station Type Date Time Source
LDDU TAF 2019/08/18 06:30 UTC NOAA

TAF LDDU 180525Z 1806/1906 19007KT 9999 FEW040 TX28/1811Z TN22/1904Z
BECMG 1812/1814 28008KT
BECMG 1818/1820 05006KT

Example: see airport list